createdAt,value
2018-02-26T00:03:57.774Z,101207
2018-02-26T00:13:59.413Z,101202
2018-02-26T00:24:01.041Z,101199
2018-02-26T00:34:02.614Z,101205
2018-02-26T00:44:04.153Z,101192
2018-02-26T00:54:05.954Z,101199
2018-02-26T01:04:07.484Z,101203
2018-02-26T01:14:09.059Z,101210
2018-02-26T01:24:18.241Z,101208
2018-02-26T01:34:20.544Z,101197
2018-02-26T01:44:22.094Z,101195
2018-02-26T01:54:23.611Z,101194
2018-02-26T02:04:25.354Z,101205
2018-02-26T02:14:26.876Z,101198
2018-02-26T02:24:29.426Z,101209
2018-02-26T02:34:31.098Z,101199
2018-02-26T02:44:33.248Z,101201
2018-02-26T02:54:34.773Z,101208
2018-02-26T03:04:36.319Z,101209
2018-02-26T03:14:37.866Z,101206
2018-02-26T03:24:39.390Z,101225
2018-02-26T03:34:40.914Z,101206
2018-02-26T03:44:43.163Z,101220
2018-02-26T03:54:44.844Z,101198
2018-02-26T04:04:46.428Z,101218
2018-02-26T04:14:48.840Z,101206
2018-02-26T04:24:50.385Z,101210
2018-02-26T04:34:52.040Z,101220
2018-02-26T04:44:54.353Z,101218
2018-02-26T04:54:56.800Z,101217
2018-02-26T05:04:58.558Z,101215
2018-02-26T05:15:00.116Z,101209
2018-02-26T05:25:01.768Z,101217
2018-02-26T05:35:03.429Z,101214
2018-02-26T05:45:04.964Z,101210
2018-02-26T05:55:06.651Z,101207
2018-02-26T06:05:08.248Z,101206
2018-02-26T06:15:09.978Z,101201
2018-02-26T06:25:11.493Z,101203
2018-02-26T06:35:13.179Z,101203
2018-02-26T06:45:14.785Z,101214
2018-02-26T06:55:16.487Z,101207
2018-02-26T07:05:18.207Z,101206
2018-02-26T07:15:19.710Z,101199
2018-02-26T07:25:22.033Z,101210
2018-02-26T07:35:24.486Z,101192
2018-02-26T07:45:26.010Z,101200
2018-02-26T07:55:27.541Z,101187
2018-02-26T08:05:29.838Z,101186
2018-02-26T08:15:31.439Z,101194
2018-02-26T08:25:33.104Z,101170
2018-02-26T08:35:34.720Z,101169
2018-02-26T08:45:36.431Z,101158
2018-02-26T08:55:38.206Z,101155
2018-02-26T09:05:39.873Z,101152
2018-02-26T09:15:42.250Z,101137
2018-02-26T09:25:43.806Z,101129
2018-02-26T09:35:45.460Z,101119
2018-02-26T09:45:47.269Z,101093
2018-02-26T09:55:48.953Z,101090
2018-02-26T10:05:50.497Z,101105
2018-02-26T10:15:52.047Z,101092
2018-02-26T10:25:53.652Z,101082
2018-02-26T10:35:56.059Z,101086
2018-02-26T10:45:57.646Z,101047
2018-02-26T10:55:59.350Z,101033
2018-02-26T11:06:00.906Z,101019
2018-02-26T11:16:02.598Z,101044
2018-02-26T11:26:04.144Z,101049
2018-02-26T11:36:05.744Z,101021
2018-02-26T11:46:07.364Z,101024
2018-02-26T11:56:08.895Z,100992
2018-02-26T12:06:10.505Z,100972
2018-02-26T12:16:12.058Z,100954
2018-02-26T12:26:13.540Z,100970
2018-02-26T12:36:15.746Z,100955
2018-02-26T12:46:18.027Z,100952
2018-02-26T12:56:19.539Z,100935
2018-02-26T13:06:21.114Z,100930
2018-02-26T13:16:22.715Z,100919
2018-02-26T13:26:24.307Z,100919
2018-02-26T13:36:25.827Z,100930
2018-02-26T13:46:27.395Z,100901
2018-02-26T13:56:28.933Z,100908
2018-02-26T14:06:30.588Z,100915
2018-02-26T14:16:32.087Z,100898
2018-02-26T14:26:33.691Z,100878
2018-02-26T14:36:35.261Z,100870
2018-02-26T14:46:37.486Z,100871
2018-02-26T14:56:39.800Z,100857
2018-02-26T15:06:42.045Z,100862
2018-02-26T15:16:43.607Z,100855
2018-02-26T15:26:45.888Z,100844
2018-02-26T15:36:47.474Z,100854
2018-02-26T15:46:48.950Z,100832
2018-02-26T15:56:50.442Z,100834
2018-02-26T16:06:51.961Z,100844
2018-02-26T16:16:53.578Z,100861
2018-02-26T16:26:55.160Z,100849
2018-02-26T16:36:56.693Z,100861
2018-02-26T16:46:58.227Z,100877
2018-02-26T16:57:00.499Z,100858
2018-02-26T17:07:02.209Z,100863
2018-02-26T17:17:03.856Z,100874
2018-02-26T17:27:06.081Z,100864
2018-02-26T17:37:07.737Z,100877
2018-02-26T17:47:09.285Z,100874
2018-02-26T17:57:10.797Z,100880
2018-02-26T18:07:13.383Z,100875
2018-02-26T18:17:15.671Z,100865
2018-02-26T18:27:17.310Z,100867
2018-02-26T19:07:24.253Z,100839
2018-02-26T19:17:25.852Z,100820
2018-02-26T19:27:28.147Z,100823
2018-02-26T19:37:29.665Z,100806
2018-02-26T19:47:31.332Z,100805
2018-02-26T19:57:32.930Z,100802
2018-02-26T20:07:34.453Z,100795
2018-02-26T20:17:36.804Z,100797
2018-02-26T20:27:38.415Z,100775
2018-02-26T20:37:39.911Z,100794
2018-02-26T20:47:41.532Z,100783
2018-02-26T20:57:43.212Z,100780
2018-02-26T21:07:44.742Z,100776
2018-02-26T21:17:46.312Z,100774
2018-02-26T21:27:47.864Z,100759
2018-02-26T21:37:49.417Z,100754
2018-02-26T21:47:50.989Z,100757
2018-02-26T21:57:52.549Z,100741
2018-02-26T22:07:54.082Z,100734
2018-02-26T22:17:55.589Z,100730
2018-02-26T22:27:57.198Z,100714
2018-02-26T22:37:58.756Z,100712
2018-02-26T22:48:00.355Z,100710
2018-02-26T22:58:01.835Z,100698
2018-02-26T23:08:03.432Z,100695
2018-02-26T23:18:04.957Z,100685
2018-02-26T23:28:06.559Z,100683
2018-02-26T23:38:08.111Z,100679
2018-02-26T23:48:09.654Z,100679
2018-02-26T23:58:11.192Z,100683
